createdAt,value
2023-05-05T00:02:45.033Z,4.28
2023-05-05T00:07:46.803Z,4.72
2023-05-05T00:12:48.886Z,4.75
2023-05-05T00:17:50.745Z,5.28
2023-05-05T00:22:52.758Z,4.90
2023-05-05T00:27:54.597Z,5.05
2023-05-05T00:32:57.343Z,5.05
2023-05-05T00:37:59.635Z,5.35
2023-05-05T00:43:01.461Z,5.70
2023-05-05T00:48:03.876Z,5.50
2023-05-05T00:53:06.709Z,5.78
2023-05-05T00:58:09.275Z,5.35
2023-05-05T01:03:13.080Z,5.20
2023-05-05T01:08:36.567Z,5.28
2023-05-05T01:13:55.677Z,5.05
2023-05-05T01:19:34.778Z,5.22
2023-05-05T01:24:39.538Z,5.95
2023-05-05T01:29:50.567Z,5.82
2023-05-05T01:35:04.361Z,5.78
2023-05-05T01:40:08.970Z,5.38
2023-05-05T01:45:14.694Z,5.75
2023-05-05T01:50:18.158Z,5.65
2023-05-05T01:55:23.890Z,6.03
2023-05-05T02:00:27.109Z,5.60
2023-05-05T02:05:31.746Z,5.65
2023-05-05T02:10:34.264Z,6.03
2023-05-05T02:15:38.342Z,5.53
2023-05-05T02:20:41.222Z,5.68
2023-05-05T02:25:46.215Z,5.45
2023-05-05T02:30:59.518Z,5.80
2023-05-05T02:36:29.642Z,5.40
2023-05-05T02:41:38.408Z,5.85
2023-05-05T02:46:45.923Z,5.50
2023-05-05T02:51:48.304Z,5.03
2023-05-05T02:56:57.850Z,5.70
2023-05-05T03:02:18.190Z,4.78
2023-05-05T03:07:34.697Z,5.47
2023-05-05T03:12:40.434Z,5.95
2023-05-05T03:17:54.161Z,5.65
2023-05-05T03:22:56.711Z,5.90
2023-05-05T03:27:58.565Z,5.57
2023-05-05T03:33:01.115Z,6.20
2023-05-05T03:38:03.467Z,5.95
2023-05-05T03:43:05.367Z,5.93
2023-05-05T03:48:09.676Z,5.85
2023-05-05T03:53:13.186Z,5.70
2023-05-05T03:58:16.517Z,6.07
2023-05-05T04:03:18.497Z,6.68
2023-05-05T04:08:20.448Z,5.35
2023-05-05T04:13:22.286Z,6.10
2023-05-05T04:18:24.107Z,5.95
2023-05-05T04:23:26.431Z,5.35
2023-05-05T04:28:28.664Z,6.22
2023-05-05T04:33:30.768Z,6.05
2023-05-05T04:38:32.852Z,6.22
2023-05-05T04:43:36.328Z,6.38
2023-05-05T04:48:38.615Z,6.22
2023-05-05T04:53:40.850Z,5.47
2023-05-05T04:58:42.870Z,4.85
2023-05-05T05:03:44.827Z,5.68
2023-05-05T05:08:47.752Z,5.18
2023-05-05T05:13:50.075Z,4.97
2023-05-05T05:18:51.936Z,4.95
2023-05-05T05:23:54.131Z,4.85
2023-05-05T05:28:56.066Z,5.13
2023-05-05T05:33:58.705Z,4.78
2023-05-05T05:39:00.733Z,5.57
2023-05-05T05:44:03.468Z,5.97
2023-05-05T05:49:05.581Z,5.68
2023-05-05T05:54:07.653Z,5.70
2023-05-05T05:59:10.353Z,5.70
2023-05-05T06:04:14.131Z,5.40
2023-05-05T06:09:16.154Z,5.20
2023-05-05T06:14:20.013Z,5.47
2023-05-05T06:19:22.600Z,5.43
2023-05-05T06:24:25.058Z,5.18
2023-05-05T06:29:27.022Z,5.15
2023-05-05T06:34:28.746Z,5.30
2023-05-05T06:39:30.845Z,5.85
2023-05-05T06:44:34.619Z,5.63
2023-05-05T06:49:36.668Z,5.38
2023-05-05T06:54:38.415Z,4.90
2023-05-05T06:59:40.462Z,5.28
2023-05-05T07:04:43.713Z,5.00
2023-05-05T07:09:45.459Z,4.88
2023-05-05T07:14:47.250Z,4.80
2023-05-05T07:19:49.037Z,4.78
2023-05-05T07:24:53.424Z,4.38
2023-05-05T07:29:55.265Z,4.63
2023-05-05T07:34:57.092Z,4.10
2023-05-05T07:39:58.930Z,4.03
2023-05-05T07:45:00.841Z,3.70
2023-05-05T07:50:02.618Z,3.85
2023-05-05T07:55:04.927Z,3.50
2023-05-05T08:00:09.426Z,4.32
2023-05-05T08:05:14.561Z,3.72
2023-05-05T08:10:16.468Z,3.10
2023-05-05T08:15:18.305Z,3.35
2023-05-05T08:20:21.153Z,3.38
2023-05-05T08:25:23.092Z,3.05
2023-05-05T08:30:24.821Z,3.15
2023-05-05T08:35:26.580Z,3.03
2023-05-05T08:40:36.547Z,2.83
2023-05-05T08:45:41.844Z,2.83
2023-05-05T08:50:48.704Z,2.90
2023-05-05T08:55:56.165Z,3.03
2023-05-05T09:00:58.684Z,2.95
2023-05-05T09:06:00.936Z,2.63
2023-05-05T09:11:02.857Z,2.50
2023-05-05T09:16:04.869Z,2.40
2023-05-05T09:21:24.910Z,2.30
2023-05-05T09:26:26.789Z,2.42
2023-05-05T09:31:30.963Z,2.28
2023-05-05T09:36:47.517Z,1.90
2023-05-05T09:41:49.314Z,1.95
2023-05-05T09:46:52.882Z,1.80
2023-05-05T09:51:55.126Z,1.52
2023-05-05T09:56:57.477Z,1.63
2023-05-05T10:02:13.296Z,1.63
2023-05-05T10:07:27.510Z,1.40
2023-05-05T10:12:31.344Z,1.42
2023-05-05T10:17:37.372Z,1.65
2023-05-05T10:22:40.066Z,1.67
2023-05-05T10:27:50.724Z,1.60
2023-05-05T10:33:13.554Z,1.75
2023-05-05T10:38:21.092Z,1.40
2023-05-05T10:43:24.548Z,1.50
2023-05-05T10:48:49.384Z,1.60
2023-05-05T10:53:58.718Z,1.40
2023-05-05T10:59:00.949Z,1.40
2023-05-05T11:04:23.234Z,1.40
2023-05-05T11:09:28.846Z,1.50
2023-05-05T11:14:30.808Z,1.42
2023-05-05T11:19:48.484Z,1.30
2023-05-05T11:24:50.340Z,1.30
2023-05-05T11:30:04.958Z,1.10
2023-05-05T11:35:07.250Z,1.20
2023-05-05T11:40:28.753Z,1.40
2023-05-05T11:45:30.588Z,1.23
2023-05-05T11:50:33.402Z,1.10
2023-05-05T11:55:35.249Z,1.00
2023-05-05T12:00:37.112Z,1.10
2023-05-05T12:05:39.031Z,1.40
2023-05-05T12:10:41.082Z,1.00
2023-05-05T12:15:42.824Z,1.10
2023-05-05T12:20:44.718Z,1.10
2023-05-05T12:25:46.520Z,0.88
2023-05-05T12:30:58.891Z,1.10
2023-05-05T12:36:00.943Z,0.98
2023-05-05T12:41:02.817Z,1.10
2023-05-05T12:46:06.532Z,1.33
2023-05-05T12:51:19.971Z,1.08
2023-05-05T12:56:35.157Z,1.08
2023-05-05T13:01:48.091Z,1.00
2023-05-05T13:07:11.225Z,1.00
2023-05-05T13:12:13.172Z,1.13
2023-05-05T13:17:15.057Z,0.93
2023-05-05T13:22:16.956Z,1.30
2023-05-05T13:27:19.048Z,1.20
2023-05-05T13:32:20.913Z,1.30
2023-05-05T13:37:22.740Z,1.17
2023-05-05T13:42:24.635Z,1.10
2023-05-05T13:47:26.442Z,0.90
2023-05-05T13:52:29.834Z,1.17
2023-05-05T13:57:32.815Z,1.05
2023-05-05T14:02:34.654Z,1.10
2023-05-05T14:07:36.466Z,1.35
2023-05-05T14:12:38.296Z,1.20
2023-05-05T14:17:40.141Z,1.73
2023-05-05T14:22:42.334Z,1.80
2023-05-05T14:27:44.388Z,1.80
2023-05-05T14:32:46.195Z,1.80
2023-05-05T14:37:47.951Z,1.70
2023-05-05T14:42:50.918Z,2.20
2023-05-05T14:47:52.857Z,1.90
2023-05-05T14:52:54.611Z,1.80
2023-05-05T14:57:56.389Z,1.85
2023-05-05T15:02:58.313Z,1.70
2023-05-05T15:08:00.058Z,1.80
2023-05-05T15:13:01.977Z,1.73
2023-05-05T15:18:04.061Z,1.70
2023-05-05T15:23:05.941Z,1.80
2023-05-05T15:28:07.833Z,1.75
2023-05-05T15:33:10.715Z,1.92
2023-05-05T15:38:12.610Z,2.15
2023-05-05T15:43:14.323Z,2.20
2023-05-05T15:48:16.125Z,1.92
2023-05-05T15:53:17.925Z,2.30
2023-05-05T15:58:19.669Z,2.10
2023-05-05T16:03:21.714Z,1.85
2023-05-05T16:08:23.599Z,1.90
2023-05-05T16:13:25.356Z,1.70
2023-05-05T16:18:27.101Z,1.40
2023-05-05T16:23:28.915Z,1.33
2023-05-05T16:28:31.075Z,1.70
2023-05-05T16:33:33.123Z,1.60
2023-05-05T16:38:34.942Z,2.10
2023-05-05T16:43:37.338Z,1.50
2023-05-05T16:48:39.126Z,4.75
2023-05-05T16:53:40.926Z,2.35
2023-05-05T16:58:42.715Z,1.77
2023-05-05T17:03:47.288Z,1.50
2023-05-05T17:08:49.015Z,1.33
2023-05-05T17:13:50.749Z,1.20
2023-05-05T17:18:53.997Z,1.13
2023-05-05T17:23:55.795Z,1.00
2023-05-05T17:28:57.529Z,1.50
2023-05-05T17:33:59.322Z,1.70
2023-05-05T17:39:01.088Z,1.10
2023-05-05T17:44:02.877Z,1.20
2023-05-05T17:49:04.728Z,1.10
2023-05-05T17:54:06.602Z,0.95
2023-05-05T17:59:08.913Z,1.10
2023-05-05T18:04:11.921Z,1.20
2023-05-05T18:09:14.003Z,1.10
2023-05-05T18:14:15.993Z,1.08
2023-05-05T18:19:20.692Z,1.20
2023-05-05T18:24:22.475Z,1.02
2023-05-05T18:29:24.316Z,1.60
2023-05-05T18:34:26.372Z,1.60
2023-05-05T18:39:28.195Z,1.00
2023-05-05T18:44:29.944Z,1.20
2023-05-05T18:49:31.860Z,1.20
2023-05-05T18:54:34.687Z,1.13
2023-05-05T18:59:38.329Z,1.60
2023-05-05T19:04:41.538Z,1.90
2023-05-05T19:09:43.412Z,1.65
2023-05-05T19:14:45.546Z,1.85
2023-05-05T19:19:47.296Z,1.50
2023-05-05T19:24:49.113Z,1.50
2023-05-05T19:29:52.683Z,1.30
2023-05-05T19:34:54.870Z,1.40
2023-05-05T19:39:56.632Z,1.70
2023-05-05T19:44:58.455Z,1.70
2023-05-05T19:50:00.365Z,1.60
2023-05-05T19:55:02.211Z,1.35
2023-05-05T20:00:04.483Z,1.50
2023-05-05T20:05:06.612Z,1.65
2023-05-05T20:10:09.663Z,1.60
2023-05-05T20:15:11.722Z,1.55
2023-05-05T20:20:17.240Z,1.48
2023-05-05T20:25:19.060Z,1.60
2023-05-05T20:30:21.050Z,1.98
2023-05-05T20:35:23.048Z,1.60
2023-05-05T20:40:24.858Z,1.58
2023-05-05T20:45:26.690Z,1.50
2023-05-05T20:50:28.524Z,1.50
2023-05-05T20:55:30.465Z,1.98
2023-05-05T21:00:32.347Z,1.90
2023-05-05T21:05:34.245Z,1.80
2023-05-05T21:10:36.391Z,1.90
2023-05-05T21:15:38.182Z,2.03
2023-05-05T21:20:39.988Z,1.80
2023-05-05T21:25:41.780Z,1.70
2023-05-05T21:30:44.283Z,1.85
2023-05-05T21:35:47.033Z,2.17
2023-05-05T21:40:49.737Z,2.13
2023-05-05T21:46:04.336Z,2.15
2023-05-05T21:51:06.815Z,1.88
2023-05-05T21:56:08.705Z,2.03
2023-05-05T22:01:10.748Z,2.38
2023-05-05T22:06:12.576Z,2.40
2023-05-05T22:11:14.768Z,1.90
2023-05-05T22:16:19.609Z,2.35
2023-05-05T22:21:22.137Z,2.10
2023-05-05T22:26:23.972Z,2.03
2023-05-05T22:31:25.880Z,2.05
2023-05-05T22:36:27.668Z,1.80
2023-05-05T22:41:29.437Z,2.28
2023-05-05T22:46:31.350Z,2.00
2023-05-05T22:51:33.205Z,1.88
2023-05-05T22:56:34.940Z,2.00
2023-05-05T23:01:36.809Z,2.00
2023-05-05T23:06:41.304Z,2.20
2023-05-05T23:11:45.961Z,2.00
2023-05-05T23:16:47.950Z,2.17
2023-05-05T23:21:53.556Z,2.03
2023-05-05T23:26:58.449Z,2.10
2023-05-05T23:32:00.175Z,1.83
2023-05-05T23:37:02.947Z,1.90
2023-05-05T23:42:06.508Z,2.00
2023-05-05T23:47:08.248Z,2.30
2023-05-05T23:52:11.346Z,2.05
2023-05-05T23:57:13.280Z,1.95
